Time;durP1;ratioP1;P1;durP2;ratioP2;P2;SDS_P1;SDS_P2;PMS_P1;PMS_P2;Temp;Humidity;BMP_temperature;BMP_pressure;BME280_temperature;BME280_humidity;BME280_pressure;Samples;Min_cycle;Max_cycle;Signal;HPM_P1;HPM_P2
2021/11/21 00:00:39;;;;;;;19.45;12.60;;;7.10;99.90;;;;;;5019216;28;20667;-84
2021/11/21 00:03:05;;;;;;;18.58;12.73;;;6.90;99.90;;;;;;5019292;28;20212;-84
2021/11/21 00:05:32;;;;;;;21.63;12.95;;;7.00;99.90;;;;;;5019248;28;20208;-83
2021/11/21 00:07:59;;;;;;;21.38;13.25;;;7.00;99.90;;;;;;5019065;28;20238;-84
2021/11/21 00:10:27;;;;;;;18.40;12.73;;;6.90;99.90;;;;;;5022466;28;20220;-82
2021/11/21 00:12:53;;;;;;;18.20;12.25;;;7.10;99.90;;;;;;5025931;28;20207;-83
2021/11/21 00:15:21;;;;;;;19.50;13.40;;;7.00;99.90;;;;;;5032573;28;20242;-83
2021/11/21 00:17:48;;;;;;;18.85;13.00;;;7.20;99.90;;;;;;5030471;28;20239;-84
2021/11/21 00:20:17;;;;;;;18.88;12.73;;;6.80;99.90;;;;;;5026279;28;20210;-83
2021/11/21 00:22:45;;;;;;;17.92;12.52;;;6.90;99.90;;;;;;5023616;28;20212;-83
2021/11/21 00:25:12;;;;;;;23.65;13.20;;;7.00;99.90;;;;;;5023869;28;20302;-84
2021/11/21 00:27:39;;;;;;;18.42;13.10;;;6.90;99.90;;;;;;5023713;28;20722;-83
2021/11/21 00:30:07;;;;;;;18.08;12.23;;;6.90;99.90;;;;;;5021454;28;20319;-82
2021/11/21 00:32:35;;;;;;;17.58;12.52;;;6.90;99.90;;;;;;5022557;28;20204;-84
2021/11/21 00:35:02;;;;;;;18.92;11.90;;;6.90;99.90;;;;;;5020929;28;20207;-83
2021/11/21 00:37:29;;;;;;;18.33;13.10;;;6.90;99.90;;;;;;5021102;28;20746;-83
2021/11/21 00:39:56;;;;;;;17.15;12.75;;;6.90;99.90;;;;;;5022622;28;20570;-83
2021/11/21 00:42:24;;;;;;;20.15;13.27;;;6.70;99.90;;;;;;5022499;28;20211;-83
2021/11/21 00:44:52;;;;;;;20.38;12.55;;;7.10;99.90;;;;;;5022564;28;20299;-83
2021/11/21 00:47:19;;;;;;;19.60;12.85;;;7.00;99.90;;;;;;5022481;28;20236;-84
2021/11/21 00:49:47;;;;;;;17.20;12.30;;;6.90;99.90;;;;;;5021753;28;20227;-83
2021/11/21 00:52:14;;;;;;;17.50;12.00;;;7.00;99.90;;;;;;5022389;28;20219;-83
2021/11/21 00:54:48;;;;;;;17.80;12.05;;;6.80;99.90;;;;;;5021098;28;20208;-83
2021/11/21 00:57:16;;;;;;;19.17;12.85;;;6.90;99.90;;;;;;5019929;28;20257;-84
2021/11/21 00:59:43;;;;;;;17.30;11.80;;;6.80;99.90;;;;;;5030960;28;20191;-83
2021/11/21 01:02:11;;;;;;;19.30;12.45;;;7.00;99.90;;;;;;5029111;28;20414;-84
2021/11/21 01:04:41;;;;;;;18.95;12.65;;;6.80;99.90;;;;;;5022693;28;20242;-83
2021/11/21 01:07:11;;;;;;;15.15;11.07;;;6.90;99.90;;;;;;5020499;28;20262;-83
2021/11/21 01:09:39;;;;;;;13.15;9.60;;;6.90;99.90;;;;;;5018997;28;20231;-83
2021/11/21 01:12:08;;;;;;;15.90;10.10;;;6.90;99.90;;;;;;5020459;28;20214;-83
2021/11/21 01:14:35;;;;;;;17.58;9.45;;;6.90;99.90;;;;;;5020554;28;20298;-83
2021/11/21 01:17:02;;;;;;;13.77;10.00;;;6.90;99.90;;;;;;5019801;28;20239;-83
2021/11/21 01:19:29;;;;;;;14.35;9.63;;;7.10;99.90;;;;;;5019687;28;20208;-83
2021/11/21 01:21:56;;;;;;;14.52;10.48;;;7.00;99.90;;;;;;5019561;28;20216;-83
2021/11/21 01:24:24;;;;;;;14.43;10.00;;;7.00;99.90;;;;;;5019503;28;20207;-83
2021/11/21 01:26:51;;;;;;;14.40;9.07;;;7.10;99.90;;;;;;5021306;28;20227;-83
2021/11/21 01:29:17;;;;;;;12.23;9.50;;;7.20;99.90;;;;;;5030268;28;20196;-83
2021/11/21 01:31:47;;;;;;;13.10;8.40;;;7.20;99.90;;;;;;5031777;28;20581;-83
2021/11/21 01:34:15;;;;;;;12.38;8.10;;;7.20;99.90;;;;;;5028587;28;20207;-84
2021/11/21 01:36:42;;;;;;;12.43;7.70;;;7.20;99.90;;;;;;5031265;28;20242;-82
2021/11/21 01:39:09;;;;;;;9.95;7.75;;;7.30;99.90;;;;;;5034432;28;20271;-82
2021/11/21 01:41:38;;;;;;;10.88;7.88;;;7.40;99.90;;;;;;5027049;28;20200;-83
2021/11/21 01:44:05;;;;;;;9.70;6.45;;;6.90;99.90;;;;;;5026828;28;20208;-83
2021/11/21 01:46:34;;;;;;;11.82;8.30;;;6.70;99.90;;;;;;5024365;28;20262;-84
2021/11/21 01:49:01;;;;;;;11.52;8.25;;;6.80;99.90;;;;;;5024763;28;20205;-83
2021/11/21 01:51:28;;;;;;;12.50;8.20;;;6.80;99.90;;;;;;5027128;28;20295;-84
2021/11/21 01:53:57;;;;;;;11.43;8.30;;;6.70;99.90;;;;;;5027158;28;20230;-84
2021/11/21 01:56:25;;;;;;;12.10;8.50;;;6.50;99.90;;;;;;5025559;28;20204;-83
2021/11/21 01:58:54;;;;;;;11.95;7.85;;;6.70;99.90;;;;;;5029945;28;20212;-83
2021/11/21 02:01:21;;;;;;;10.90;8.18;;;6.60;99.90;;;;;;5024843;28;20214;-83
2021/11/21 02:03:48;;;;;;;11.57;7.68;;;6.60;99.90;;;;;;5022241;28;20299;-83
2021/11/21 02:06:15;;;;;;;10.65;7.85;;;6.40;99.90;;;;;;5021823;28;20196;-83
2021/11/21 02:08:42;;;;;;;11.75;8.73;;;6.40;99.90;;;;;;5021184;28;20211;-83
2021/11/21 02:11:09;;;;;;;11.10;8.27;;;6.40;99.90;;;;;;5021147;28;20612;-83
2021/11/21 02:13:36;;;;;;;10.60;6.90;;;6.40;99.90;;;;;;5021987;28;20203;-83
2021/11/21 02:16:07;;;;;;;10.73;7.80;;;6.40;99.90;;;;;;5020938;28;20326;-83
2021/11/21 02:18:34;;;;;;;11.25;7.55;;;6.30;99.90;;;;;;5021114;28;20202;-82
2021/11/21 02:21:02;;;;;;;9.73;6.80;;;6.60;99.90;;;;;;5021918;28;20236;-83
2021/11/21 02:23:29;;;;;;;10.43;7.88;;;7.00;99.90;;;;;;5021206;28;20204;-83
2021/11/21 02:25:56;;;;;;;11.70;7.45;;;6.90;99.90;;;;;;5022749;28;20303;-82
2021/11/21 02:28:23;;;;;;;11.68;7.68;;;6.60;99.90;;;;;;5026795;28;20231;-82
2021/11/21 02:30:51;;;;;;;10.95;7.10;;;6.40;99.90;;;;;;5030795;28;20231;-82
2021/11/21 02:33:21;;;;;;;12.23;8.57;;;6.60;99.90;;;;;;5031091;28;20598;-82
2021/11/21 02:35:51;;;;;;;11.57;7.43;;;6.70;99.90;;;;;;5029689;28;20212;-83
2021/11/21 02:38:24;;;;;;;10.20;7.10;;;6.50;99.90;;;;;;5030238;28;20229;-82
2021/11/21 02:40:51;;;;;;;9.90;6.88;;;6.80;99.90;;;;;;5029854;28;20546;-82
2021/11/21 02:43:19;;;;;;;11.40;8.02;;;6.60;99.90;;;;;;5024270;28;20225;-82
2021/11/21 02:45:47;;;;;;;11.48;7.03;;;6.40;99.90;;;;;;5022191;28;20325;-83
2021/11/21 02:48:17;;;;;;;9.07;6.75;;;6.70;99.90;;;;;;5022405;28;20239;-83
2021/11/21 02:50:45;;;;;;;10.45;7.28;;;6.60;99.90;;;;;;5021563;28;20208;-83
2021/11/21 02:53:14;;;;;;;9.82;7.40;;;6.70;99.90;;;;;;5022584;28;20192;-83
2021/11/21 02:55:43;;;;;;;11.90;7.50;;;6.60;99.90;;;;;;5024361;28;20234;-82
2021/11/21 02:58:10;;;;;;;10.70;7.43;;;6.60;99.90;;;;;;5026391;28;20247;-83
2021/11/21 03:00:38;;;;;;;8.50;6.50;;;6.50;99.90;;;;;;5023958;28;20204;-83
2021/11/21 03:03:06;;;;;;;9.57;7.03;;;6.60;99.90;;;;;;5023069;28;20246;-83
2021/11/21 03:05:34;;;;;;;9.95;6.95;;;6.50;99.90;;;;;;5024332;28;20214;-83
2021/11/21 03:08:01;;;;;;;8.93;6.20;;;6.20;99.90;;;;;;5022767;28;20230;-83
2021/11/21 03:10:29;;;;;;;9.45;6.45;;;6.50;99.90;;;;;;5021745;28;20287;-83
2021/11/21 03:13:00;;;;;;;9.95;6.28;;;6.50;99.90;;;;;;5022658;28;20207;-83
2021/11/21 03:15:27;;;;;;;9.40;5.70;;;6.40;99.90;;;;;;5019670;28;20233;-83
2021/11/21 03:17:55;;;;;;;10.82;6.60;;;6.50;99.90;;;;;;5038816;23;20231;-79
2021/11/21 03:20:25;;;;;;;7.78;5.72;;;6.70;99.90;;;;;;5016223;28;20299;-79
2021/11/21 03:22:51;;;;;;;9.77;6.65;;;6.80;99.90;;;;;;5016739;28;20208;-79
2021/11/21 03:25:19;;;;;;;9.15;6.35;;;6.70;99.90;;;;;;5019139;28;20211;-79
2021/11/21 03:27:45;;;;;;;11.27;6.45;;;6.70;99.90;;;;;;5025684;28;20307;-78
2021/11/21 03:30:16;;;;;;;11.50;7.03;;;6.60;99.90;;;;;;5020777;28;20220;-80
2021/11/21 03:32:44;;;;;;;13.55;7.68;;;6.50;99.90;;;;;;5022548;28;20543;-78
2021/11/21 03:35:11;;;;;;;12.73;7.90;;;6.50;99.90;;;;;;5022621;28;20211;-78
2021/11/21 03:37:38;;;;;;;13.52;7.78;;;6.20;99.90;;;;;;5019551;28;20238;-79
2021/11/21 03:40:08;;;;;;;10.75;6.93;;;6.20;99.90;;;;;;5030543;28;20220;-79
2021/11/21 03:42:35;;;;;;;12.63;8.38;;;6.00;99.90;;;;;;5033284;28;20212;-79
2021/11/21 03:45:02;;;;;;;11.20;8.05;;;6.10;99.90;;;;;;5018704;28;20238;-78
2021/11/21 03:47:30;;;;;;;13.20;7.60;;;6.10;99.90;;;;;;5020205;28;20220;-78
2021/11/21 03:49:57;;;;;;;11.35;7.20;;;6.40;99.90;;;;;;5020333;28;20207;-79
2021/11/21 03:52:24;;;;;;;10.10;6.63;;;6.40;99.90;;;;;;5026903;28;20344;-79
2021/11/21 03:54:51;;;;;;;9.23;6.85;;;6.50;99.90;;;;;;5037491;28;20226;-77
2021/11/21 03:57:18;;;;;;;10.48;7.10;;;6.40;99.90;;;;;;5026263;28;20223;-78
2021/11/21 03:59:45;;;;;;;8.32;6.20;;;6.50;99.90;;;;;;5033594;28;20207;-79
2021/11/21 04:02:12;;;;;;;11.50;7.30;;;6.40;99.90;;;;;;5030782;28;20208;-79
2021/11/21 04:04:40;;;;;;;9.93;7.10;;;6.30;99.90;;;;;;5021021;28;20214;-79
2021/11/21 04:07:07;;;;;;;9.05;6.65;;;6.30;99.90;;;;;;5031977;28;20211;-79
2021/11/21 04:09:34;;;;;;;9.38;6.20;;;6.20;99.90;;;;;;5024543;28;20207;-78
2021/11/21 04:12:00;;;;;;;8.77;6.45;;;6.40;99.90;;;;;;5020463;28;20223;-78
2021/11/21 04:14:27;;;;;;;8.48;6.20;;;6.50;99.90;;;;;;5023087;28;20212;-78
2021/11/21 04:16:54;;;;;;;9.30;7.07;;;6.20;99.90;;;;;;5018671;28;20207;-78
2021/11/21 04:19:21;;;;;;;9.70;6.60;;;6.30;99.90;;;;;;5018745;28;20607;-80
2021/11/21 04:21:49;;;;;;;8.85;5.55;;;6.30;99.90;;;;;;5018899;28;20204;-78
2021/11/21 04:24:16;;;;;;;10.80;5.60;;;6.40;99.90;;;;;;5018925;28;20211;-79
2021/11/21 04:26:44;;;;;;;8.30;5.55;;;6.30;99.90;;;;;;5018504;28;20705;-80
2021/11/21 04:29:11;;;;;;;10.32;6.22;;;6.40;99.90;;;;;;5018666;28;20231;-78
2021/11/21 04:31:38;;;;;;;8.48;5.80;;;6.30;99.90;;;;;;5018577;28;20307;-79
2021/11/21 04:34:05;;;;;;;7.90;5.35;;;6.40;99.90;;;;;;5019280;28;20207;-79
2021/11/21 04:36:32;;;;;;;8.98;5.88;;;6.10;99.90;;;;;;5018206;28;20230;-78
2021/11/21 04:39:00;;;;;;;8.90;5.88;;;6.20;99.90;;;;;;5020114;28;20231;-78
2021/11/21 04:41:27;;;;;;;8.57;6.50;;;5.90;99.90;;;;;;5025563;28;20216;-78
2021/11/21 04:43:54;;;;;;;9.95;6.53;;;6.00;99.90;;;;;;5022173;28;20622;-79
2021/11/21 04:46:20;;;;;;;9.85;7.07;;;6.20;99.90;;;;;;5019096;28;20286;-78
2021/11/21 04:48:47;;;;;;;9.85;6.35;;;6.10;99.90;;;;;;5018606;28;20302;-78
2021/11/21 04:51:14;;;;;;;9.35;7.15;;;6.00;99.90;;;;;;5018762;28;20223;-79
2021/11/21 04:53:41;;;;;;;10.60;6.60;;;6.00;99.90;;;;;;5021866;28;20212;-78
2021/11/21 04:56:09;;;;;;;8.95;5.57;;;6.20;99.90;;;;;;5034364;28;20277;-77
2021/11/21 04:58:36;;;;;;;8.27;5.50;;;6.20;99.90;;;;;;5030255;28;20250;-79
2021/11/21 05:01:04;;;;;;;8.90;6.00;;;6.00;99.90;;;;;;5026780;28;20208;-79
2021/11/21 05:03:30;;;;;;;7.30;5.38;;;6.30;99.90;;;;;;5019169;28;20199;-78
2021/11/21 05:05:57;;;;;;;8.68;5.80;;;6.10;99.90;;;;;;5019096;28;20590;-79
2021/11/21 05:08:24;;;;;;;7.18;5.45;;;6.30;99.90;;;;;;5018748;28;20227;-80
2021/11/21 05:10:51;;;;;;;8.25;5.25;;;6.20;99.90;;;;;;5019786;28;20230;-79
2021/11/21 05:13:19;;;;;;;8.07;5.00;;;6.20;99.90;;;;;;5019745;28;20217;-79
2021/11/21 05:15:46;;;;;;;8.70;5.53;;;6.10;99.90;;;;;;5019003;28;20562;-79
2021/11/21 05:18:13;;;;;;;8.13;5.20;;;6.10;99.90;;;;;;5018601;28;20254;-79
2021/11/21 05:20:40;;;;;;;9.10;6.20;;;6.00;99.90;;;;;;5018735;28;20218;-79
2021/11/21 05:23:07;;;;;;;8.27;5.70;;;5.90;99.90;;;;;;5036003;28;20212;-79
2021/11/21 05:25:34;;;;;;;8.90;5.00;;;5.80;99.90;;;;;;5027817;28;20218;-79
2021/11/21 05:28:01;;;;;;;10.02;6.15;;;5.90;99.90;;;;;;5019198;28;20339;-79
2021/11/21 05:30:29;;;;;;;8.95;6.25;;;5.70;99.90;;;;;;5018802;28;20242;-79
2021/11/21 05:32:56;;;;;;;10.13;5.85;;;5.90;99.90;;;;;;5022566;28;20233;-78
2021/11/21 05:35:23;;;;;;;7.85;5.25;;;5.70;99.90;;;;;;5025809;28;20215;-79
2021/11/21 05:37:51;;;;;;;6.93;4.82;;;5.90;99.90;;;;;;5024002;28;20230;-79
2021/11/21 05:40:19;;;;;;;8.13;5.50;;;6.00;99.90;;;;;;5024693;28;20294;-79
2021/11/21 05:42:46;;;;;;;8.40;5.75;;;6.00;99.90;;;;;;5020040;28;20652;-79
2021/11/21 05:45:13;;;;;;;9.60;5.70;;;6.00;99.90;;;;;;5018197;28;20212;-78
2021/11/21 05:47:41;;;;;;;7.65;5.18;;;5.80;99.90;;;;;;5020016;28;20588;-79
2021/11/21 05:50:12;;;;;;;8.13;5.22;;;5.80;99.90;;;;;;5020141;28;20269;-79
2021/11/21 05:52:40;;;;;;;9.15;5.70;;;5.90;99.90;;;;;;5018943;28;20242;-79
2021/11/21 05:55:07;;;;;;;8.90;5.63;;;5.70;99.90;;;;;;5018686;28;20211;-79
2021/11/21 05:57:34;;;;;;;10.00;5.65;;;5.60;99.90;;;;;;5029458;28;20232;-79
2021/11/21 06:00:00;;;;;;;8.88;4.97;;;5.80;99.90;;;;;;5018745;28;20207;-79
2021/11/21 06:02:27;;;;;;;7.75;5.05;;;5.70;99.90;;;;;;5021602;28;20200;-78
2021/11/21 06:04:55;;;;;;;7.60;4.70;;;5.60;99.90;;;;;;5021044;28;20670;-79
2021/11/21 06:07:22;;;;;;;9.00;5.38;;;5.70;99.90;;;;;;5017848;28;20207;-79
2021/11/21 06:09:49;;;;;;;9.13;4.57;;;5.60;99.90;;;;;;5017760;28;20207;-79
2021/11/21 06:12:16;;;;;;;10.30;5.10;;;5.50;99.90;;;;;;5018151;28;20239;-79
2021/11/21 06:14:42;;;;;;;8.88;4.70;;;5.70;99.90;;;;;;5018856;28;20213;-79
2021/11/21 06:17:10;;;;;;;8.25;4.82;;;5.70;99.90;;;;;;5018516;28;20665;-77
2021/11/21 06:19:38;;;;;;;9.95;5.05;;;5.80;99.90;;;;;;5021477;28;20195;-78
2021/11/21 06:22:06;;;;;;;12.85;5.28;;;5.60;99.90;;;;;;5019228;28;20596;-79
2021/11/21 06:24:33;;;;;;;10.15;6.00;;;5.50;99.90;;;;;;5022388;28;20212;-78
2021/11/21 06:27:00;;;;;;;10.50;5.82;;;5.60;99.90;;;;;;5017913;28;20207;-78
2021/11/21 06:29:26;;;;;;;10.88;5.50;;;5.60;99.90;;;;;;5017409;28;20740;-79
2021/11/21 06:31:53;;;;;;;10.30;6.65;;;5.70;99.90;;;;;;5019309;28;20736;-78
2021/11/21 06:34:20;;;;;;;10.20;5.70;;;5.50;99.90;;;;;;5017046;28;20207;-78
2021/11/21 06:36:47;;;;;;;9.70;5.88;;;5.60;99.90;;;;;;5017070;28;20700;-79
2021/11/21 06:39:15;;;;;;;9.57;5.57;;;5.50;99.90;;;;;;5018507;28;20238;-79
2021/11/21 06:41:42;;;;;;;8.65;5.22;;;5.50;99.90;;;;;;5028500;28;20703;-78
2021/11/21 06:44:09;;;;;;;8.75;5.15;;;5.60;99.90;;;;;;5031045;28;20575;-79
2021/11/21 06:46:37;;;;;;;7.32;3.97;;;5.70;99.90;;;;;;5021164;28;20215;-79
2021/11/21 06:49:04;;;;;;;9.48;5.53;;;5.80;99.90;;;;;;5018519;28;20724;-79
2021/11/21 06:51:32;;;;;;;12.80;5.22;;;5.60;99.90;;;;;;5030612;28;20253;-79
2021/11/21 06:53:59;;;;;;;9.63;5.05;;;5.70;99.90;;;;;;5031960;28;20242;-78
2021/11/21 06:56:29;;;;;;;11.63;5.50;;;5.70;99.90;;;;;;5017738;28;20215;-78
2021/11/21 06:58:56;;;;;;;9.60;5.70;;;5.70;99.90;;;;;;5017123;28;20227;-83
2021/11/21 07:01:24;;;;;;;12.30;6.10;;;5.70;99.90;;;;;;5016724;28;20214;-78
2021/11/21 07:03:50;;;;;;;12.23;5.47;;;5.80;99.90;;;;;;5016998;28;20242;-78
2021/11/21 07:06:32;;;;;;;9.95;5.90;;;5.60;99.90;;;;;;5017522;28;20620;-78
2021/11/21 07:08:59;;;;;;;9.60;5.97;;;5.60;99.90;;;;;;5017062;28;20725;-78
2021/11/21 07:11:27;;;;;;;11.40;5.80;;;5.80;99.90;;;;;;5026546;28;20215;-78
2021/11/21 07:13:54;;;;;;;9.32;5.85;;;5.70;99.90;;;;;;5016426;28;20666;-78
2021/11/21 07:16:21;;;;;;;10.65;5.05;;;6.00;99.90;;;;;;5017072;28;20208;-78
2021/11/21 07:18:48;;;;;;;10.32;5.40;;;6.10;99.90;;;;;;5018701;28;20298;-78
2021/11/21 07:21:14;;;;;;;8.50;5.07;;;6.30;99.90;;;;;;5026232;28;20217;-78
2021/11/21 07:23:41;;;;;;;10.35;6.25;;;6.10;99.90;;;;;;5030280;28;20214;-78
2021/11/21 07:26:08;;;;;;;8.82;5.18;;;6.10;99.90;;;;;;5022616;28;20211;-78
2021/11/21 07:28:37;;;;;;;9.32;5.72;;;6.10;99.90;;;;;;5020793;28;20231;-78
2021/11/21 07:31:04;;;;;;;10.68;5.75;;;6.30;99.90;;;;;;5020738;28;20207;-78
2021/11/21 07:33:31;;;;;;;9.75;5.20;;;6.00;99.90;;;;;;5020874;28;20231;-78
2021/11/21 07:35:58;;;;;;;9.77;5.32;;;6.00;99.90;;;;;;5037649;28;20201;-78
2021/11/21 07:38:25;;;;;;;9.90;5.85;;;6.00;99.90;;;;;;5023701;28;20229;-79
2021/11/21 07:40:53;;;;;;;9.88;5.55;;;6.20;99.90;;;;;;5020709;28;20222;-79
2021/11/21 07:43:20;;;;;;;10.52;6.25;;;6.20;99.90;;;;;;5020630;28;20257;-79
2021/11/21 07:45:49;;;;;;;11.20;5.50;;;6.10;99.90;;;;;;5020157;28;20214;-78
2021/11/21 07:48:16;;;;;;;7.85;4.65;;;6.30;99.90;;;;;;5021016;28;20263;-79
2021/11/21 07:50:43;;;;;;;9.90;5.50;;;6.30;99.90;;;;;;5020849;28;20222;-79
2021/11/21 07:53:10;;;;;;;10.38;5.60;;;6.40;99.90;;;;;;5020593;28;20223;-80
2021/11/21 07:55:37;;;;;;;10.05;5.32;;;6.50;99.90;;;;;;5021248;28;20575;-80
2021/11/21 07:58:03;;;;;;;9.70;5.50;;;6.40;99.90;;;;;;5021886;28;20241;-80
2021/11/21 08:00:30;;;;;;;8.35;5.13;;;6.50;99.90;;;;;;5022254;28;20210;-80
2021/11/21 08:02:59;;;;;;;8.40;5.15;;;6.40;99.90;;;;;;5023870;28;20208;-80
2021/11/21 08:05:25;;;;;;;9.52;5.60;;;6.30;99.90;;;;;;5021957;28;20212;-79
2021/11/21 08:07:52;;;;;;;11.13;6.50;;;6.40;99.90;;;;;;5025771;28;20231;-80
2021/11/21 08:10:20;;;;;;;10.13;5.07;;;6.20;99.90;;;;;;5025862;28;20222;-79
2021/11/21 08:12:47;;;;;;;9.20;5.53;;;6.60;99.90;;;;;;5022151;28;20227;-80
2021/11/21 08:15:14;;;;;;;11.48;6.60;;;6.80;99.90;;;;;;5022479;28;20207;-80
2021/11/21 08:17:43;;;;;;;10.25;6.10;;;6.20;99.90;;;;;;5024741;28;20236;-80
2021/11/21 08:20:12;;;;;;;11.45;6.35;;;6.00;99.90;;;;;;5027523;28;20274;-78
2021/11/21 08:22:40;;;;;;;18.38;9.98;;;6.20;99.90;;;;;;5034106;28;20214;-78
2021/11/21 08:25:15;;;;;;;19.25;11.50;;;6.10;99.90;;;;;;5033643;28;20298;-79
2021/11/21 08:27:42;;;;;;;20.80;11.50;;;6.10;99.90;;;;;;5023391;28;20287;-80
2021/11/21 08:30:10;;;;;;;18.23;10.60;;;6.20;99.90;;;;;;5023496;28;20198;-80
2021/11/21 08:32:37;;;;;;;21.00;9.50;;;6.30;99.90;;;;;;5024483;28;20596;-79
2021/11/21 08:35:04;;;;;;;22.10;11.65;;;6.10;99.90;;;;;;5032936;28;20263;-78
2021/11/21 08:37:33;;;;;;;19.50;11.20;;;6.00;99.90;;;;;;5032142;28;20288;-79
2021/11/21 08:40:00;;;;;;;20.80;11.90;;;6.20;99.90;;;;;;5029119;28;20307;-81
2021/11/21 08:42:28;;;;;;;17.80;11.15;;;6.00;99.90;;;;;;5027719;28;20203;-86
2021/11/21 08:44:54;;;;;;;25.27;15.43;;;6.20;99.90;;;;;;5021652;28;20588;-76
2021/11/21 08:47:22;;;;;;;27.60;14.48;;;5.90;99.90;;;;;;5016335;28;20609;-77
2021/11/21 08:49:49;;;;;;;20.13;11.75;;;6.00;99.90;;;;;;5016890;28;20212;-77
2021/11/21 08:52:16;;;;;;;25.45;13.20;;;6.20;99.90;;;;;;5018108;28;20574;-77
2021/11/21 08:54:44;;;;;;;23.00;12.90;;;6.20;99.90;;;;;;5017725;28;20321;-77
2021/11/21 08:57:11;;;;;;;22.05;12.40;;;5.80;99.90;;;;;;5017485;28;20604;-77
2021/11/21 08:59:38;;;;;;;21.38;12.00;;;6.10;99.90;;;;;;5015984;28;20204;-77
2021/11/21 09:02:05;;;;;;;22.45;12.88;;;6.20;99.90;;;;;;5017369;28;20207;-77
2021/11/21 09:04:31;;;;;;;17.65;10.93;;;6.30;99.90;;;;;;5015568;28;20207;-76
2021/11/21 09:06:58;;;;;;;19.83;11.50;;;6.20;99.90;;;;;;5017727;28;20212;-78
2021/11/21 09:09:25;;;;;;;22.77;12.43;;;6.10;99.90;;;;;;5018563;28;20227;-79
2021/11/21 09:11:53;;;;;;;19.38;11.40;;;6.20;99.90;;;;;;5018561;28;20217;-77
2021/11/21 09:14:20;;;;;;;19.77;11.32;;;6.10;99.90;;;;;;5015453;28;20697;-77
2021/11/21 09:16:47;;;;;;;17.60;10.95;;;6.40;99.90;;;;;;5019756;28;20748;-86
2021/11/21 09:19:14;;;;;;;18.02;11.30;;;6.70;99.90;;;;;;5055951;23;20712;-81
2021/11/21 09:21:42;;;;;;;17.15;10.25;;;6.30;99.90;;;;;;5020250;28;20302;-80
2021/11/21 09:24:09;;;;;;;17.98;10.98;;;6.40;99.90;;;;;;5020352;28;20210;-82
2021/11/21 09:26:36;;;;;;;16.55;10.30;;;6.50;99.90;;;;;;5020801;28;20207;-81
2021/11/21 09:29:05;;;;;;;17.05;10.15;;;6.50;99.90;;;;;;5025453;28;20303;-81
2021/11/21 09:31:32;;;;;;;13.80;9.35;;;6.60;99.90;;;;;;5033787;28;20275;-83
2021/11/21 09:33:59;;;;;;;17.02;9.82;;;6.60;99.90;;;;;;5031418;28;20231;-83
2021/11/21 09:36:26;;;;;;;17.77;9.50;;;6.60;99.90;;;;;;5022495;28;20305;-82
2021/11/21 09:38:53;;;;;;;14.35;8.93;;;6.40;99.90;;;;;;5031694;28;20255;-83
2021/11/21 09:41:20;;;;;;;15.35;9.95;;;6.50;99.90;;;;;;5034546;28;20299;-83
2021/11/21 09:43:47;;;;;;;14.70;9.20;;;6.30;99.90;;;;;;5037340;28;20222;-82
2021/11/21 09:46:16;;;;;;;14.40;8.48;;;6.10;99.90;;;;;;5035523;28;20693;-82
2021/11/21 09:48:43;;;;;;;14.32;8.02;;;6.30;99.90;;;;;;5029806;28;20388;-82
2021/11/21 09:51:10;;;;;;;12.68;8.10;;;6.50;99.90;;;;;;5020884;28;20218;-83
2021/11/21 09:53:37;;;;;;;14.82;9.93;;;6.40;99.90;;;;;;5019471;28;20705;-82
2021/11/21 09:56:05;;;;;;;14.38;9.07;;;6.50;99.90;;;;;;5022963;28;20192;-84
2021/11/21 09:58:32;;;;;;;13.50;9.15;;;6.40;99.90;;;;;;5030732;28;20674;-84
2021/11/21 10:00:58;;;;;;;15.40;9.13;;;6.80;99.90;;;;;;5021132;28;20198;-82
2021/11/21 10:03:27;;;;;;;15.20;9.00;;;6.90;99.90;;;;;;5020979;28;20211;-81
2021/11/21 10:05:56;;;;;;;15.30;8.45;;;6.70;99.90;;;;;;5020957;28;20222;-81
2021/11/21 10:08:25;;;;;;;15.95;9.25;;;6.90;99.90;;;;;;5021281;28;20223;-81
2021/11/21 10:10:54;;;;;;;15.05;9.15;;;6.70;99.90;;;;;;5021466;28;20211;-82
2021/11/21 10:13:30;;;;;;;15.15;9.23;;;6.70;99.90;;;;;;5021263;28;20231;-82
2021/11/21 10:15:58;;;;;;;13.93;8.13;;;6.70;99.90;;;;;;5020256;28;20213;-82
2021/11/21 10:18:26;;;;;;;16.15;9.27;;;6.60;99.90;;;;;;5020576;28;20235;-84
2021/11/21 10:20:53;;;;;;;13.38;8.00;;;6.90;99.90;;;;;;5022336;28;20218;-82
2021/11/21 10:23:21;;;;;;;11.98;7.82;;;7.00;99.90;;;;;;5026287;28;20215;-81
2021/11/21 10:25:52;;;;;;;12.23;7.47;;;6.90;99.90;;;;;;5033609;28;20256;-81
2021/11/21 10:28:23;;;;;;;12.20;6.97;;;6.80;99.90;;;;;;5031167;28;20295;-81
2021/11/21 10:31:09;;;;;;;12.35;7.57;;;6.80;99.90;;;;;;5023909;28;20191;-81
2021/11/21 10:33:39;;;;;;;13.63;7.57;;;7.00;99.90;;;;;;5021734;28;20697;-82
2021/11/21 10:36:09;;;;;;;12.15;7.47;;;7.00;99.90;;;;;;5032435;28;20278;-80
2021/11/21 10:38:42;;;;;;;12.27;7.45;;;6.90;99.90;;;;;;5027440;28;20248;-83
2021/11/21 10:41:15;;;;;;;11.10;6.60;;;7.00;99.90;;;;;;5020751;28;20191;-82
2021/11/21 10:43:45;;;;;;;14.88;7.95;;;7.30;99.90;;;;;;5019500;28;20180;-82
2021/11/21 10:46:31;;;;;;;11.73;6.75;;;7.20;99.90;;;;;;5018944;28;20291;-81
2021/11/21 10:52:06;;;;;;;13.25;7.20;;;7.20;99.90;;;;;;5100628;28;20530;-82
2021/11/21 10:54:36;;;;;;;12.63;7.40;;;7.40;99.90;;;;;;5105987;28;20215;-82
2021/11/21 10:57:06;;;;;;;13.23;7.53;;;7.40;99.90;;;;;;5099164;28;20219;-82
2021/11/21 10:59:35;;;;;;;17.33;8.57;;;7.00;99.90;;;;;;5097977;28;20231;-81
2021/11/21 11:02:11;;;;;;;15.43;8.15;;;7.00;99.90;;;;;;5099710;28;20215;-83
2021/11/21 11:04:38;;;;;;;15.70;7.78;;;6.70;99.90;;;;;;5102779;28;20234;-82
2021/11/21 11:07:16;;;;;;;14.38;8.40;;;6.80;99.90;;;;;;5106228;28;20195;-82
2021/11/21 11:09:44;;;;;;;14.50;7.60;;;6.60;99.90;;;;;;5110854;28;20224;-83
2021/11/21 11:12:11;;;;;;;13.20;7.38;;;6.30;99.90;;;;;;5107817;28;20205;-81
2021/11/21 11:14:38;;;;;;;14.45;7.63;;;6.80;99.90;;;;;;5107094;28;20204;-81
2021/11/21 11:17:05;;;;;;;14.80;8.88;;;6.40;99.90;;;;;;5099766;28;20212;-81
2021/11/21 11:19:34;;;;;;;15.65;9.48;;;6.50;99.90;;;;;;5099894;28;20234;-83
2021/11/21 11:22:01;;;;;;;17.92;9.07;;;6.30;99.90;;;;;;5096642;28;20238;-81
2021/11/21 11:24:30;;;;;;;18.35;8.38;;;6.30;99.90;;;;;;5100348;28;20207;-81
2021/11/21 11:27:04;;;;;;;14.55;7.10;;;6.30;99.90;;;;;;5098992;28;20205;-82
2021/11/21 11:29:36;;;;;;;14.95;9.13;;;6.30;99.90;;;;;;5094802;28;20221;-83
2021/11/21 11:32:22;;;;;;;16.02;8.25;;;6.20;99.90;;;;;;5094972;28;20536;-82
2021/11/21 11:34:49;;;;;;;13.75;7.13;;;6.10;99.90;;;;;;5093339;28;20208;-82
2021/11/21 11:37:24;;;;;;;13.95;7.53;;;6.10;99.90;;;;;;5093879;28;20205;-81
2021/11/21 11:39:53;;;;;;;16.83;9.98;;;6.30;99.90;;;;;;5094064;28;20292;-80
2021/11/21 11:42:41;;;;;;;11.73;6.82;;;6.30;99.90;;;;;;5096163;28;20205;-81
2021/11/21 11:45:10;;;;;;;14.70;7.20;;;6.40;99.90;;;;;;5089892;28;20209;-81
2021/11/21 11:47:38;;;;;;;13.90;8.57;;;6.20;99.90;;;;;;5098221;28;20212;-82
2021/11/21 11:50:06;;;;;;;14.48;8.65;;;6.00;99.90;;;;;;5101398;28;20229;-81
2021/11/21 11:52:53;;;;;;;14.00;8.32;;;6.00;99.90;;;;;;5094487;28;20255;-81
2021/11/21 11:55:22;;;;;;;15.10;7.55;;;6.10;99.90;;;;;;5100643;28;20209;-80
2021/11/21 11:57:49;;;;;;;11.52;6.70;;;6.20;99.90;;;;;;5103176;28;20212;-79
2021/11/21 12:00:31;;;;;;;16.95;8.90;;;6.30;99.90;;;;;;5098790;28;20208;-81
2021/11/21 12:02:59;;;;;;;12.48;7.68;;;6.30;99.90;;;;;;5090227;28;20185;-78
2021/11/21 12:05:31;;;;;;;11.27;6.60;;;6.40;99.90;;;;;;5088583;28;20750;-80
2021/11/21 12:08:15;;;;;;;13.95;7.75;;;6.30;99.90;;;;;;5088771;28;20230;-81
2021/11/21 12:10:50;;;;;;;14.82;7.55;;;6.20;99.90;;;;;;5083829;28;20252;-81
2021/11/21 12:13:35;;;;;;;14.68;8.05;;;6.50;99.90;;;;;;5082036;28;20196;-81
2021/11/21 12:16:04;;;;;;;12.48;6.85;;;6.50;99.90;;;;;;5083556;28;20196;-81
2021/11/21 12:18:55;;;;;;;15.32;8.10;;;6.50;99.90;;;;;;5082332;28;20308;-81
2021/11/21 12:21:50;;;;;;;11.27;6.57;;;6.70;99.90;;;;;;5083899;28;20190;-80
2021/11/21 12:24:20;;;;;;;12.95;7.30;;;6.80;99.90;;;;;;5049071;28;20323;-81
2021/11/21 12:26:48;;;;;;;13.00;6.80;;;6.40;99.90;;;;;;5084271;28;20205;-82
2021/11/21 12:29:31;;;;;;;13.00;7.40;;;6.50;99.90;;;;;;5084915;28;20229;-81
2021/11/21 12:32:15;;;;;;;13.63;7.18;;;6.70;99.90;;;;;;5085604;28;20228;-81
2021/11/21 12:34:44;;;;;;;13.57;6.28;;;6.50;99.90;;;;;;5082067;28;20666;-82
2021/11/21 12:37:26;;;;;;;11.82;7.10;;;6.60;99.90;;;;;;5085543;28;20205;-81
2021/11/21 12:39:56;;;;;;;11.60;5.90;;;6.80;99.90;;;;;;5087834;28;20229;-81
2021/11/21 12:42:27;;;;;;;9.98;6.53;;;6.80;99.90;;;;;;5088172;28;20261;-82
2021/11/21 12:45:09;;;;;;;11.80;6.28;;;6.60;99.90;;;;;;5085809;28;20190;-82
2021/11/21 12:47:36;;;;;;;9.98;6.15;;;6.70;99.90;;;;;;5085595;28;20189;-84
2021/11/21 12:50:05;;;;;;;9.40;5.95;;;6.80;99.90;;;;;;5083248;28;20316;-85
2021/11/21 12:52:32;;;;;;;10.90;6.30;;;7.10;99.90;;;;;;5083989;28;20242;-84
2021/11/21 12:54:59;;;;;;;10.88;6.57;;;6.80;99.90;;;;;;5086677;28;20201;-80
2021/11/21 12:57:27;;;;;;;9.90;6.03;;;6.80;99.90;;;;;;5089168;28;20276;-81